Artesia ASC

Feb. 28, 2020, noon

  • imperial
Air Temperature RH Dewpoint Wind Chill Heat Index Wind Speed Wind Direction Precipitation Solar Radiation Soil Temperature
Date Time Max Mean Mean Total Total
US/Mountain F % F F F MPH MPH MPH deg. deg. in. MJ/m^2 F
2020-02-27 12:00 59.9 16.72 14.56 59.9 59.9 6.53 7.07 4.56 99.5 35.7 0.0 0.219 46.17
2020-02-27 12:05 60.69 16.14 14.39 60.69 60.69 6.0 10.45 6.4 349.8 342.9 0.0 0.219 46.38
2020-02-27 12:10 60.69 16.55 14.97 60.69 60.69 3.85 8.3 4.88 154.1 14.3 0.0 0.219 46.58
2020-02-27 12:15 61.48 16.07 14.94 61.48 61.48 6.89 11.7 7.07 350.7 354.7 0.0 0.219 46.8
2020-02-27 12:20 60.69 15.42 13.35 60.69 60.69 6.35 13.31 7.92 17.1 10.0 0.0 0.219 47.01
2020-02-27 12:25 60.69 15.22 13.06 60.69 60.69 7.43 9.73 5.17 344.1 4.5 0.0 0.219 47.21
2020-02-27 12:30 60.94 16.1 14.54 60.94 60.94 12.24 12.59 8.32 315.6 321.5 0.0 0.211 47.43
2020-02-27 12:35 61.18 14.54 12.41 61.18 61.18 7.43 11.16 6.62 336.2 350.7 0.0 0.218 47.62
2020-02-27 12:40 61.43 15.76 14.45 61.43 61.43 6.0 8.48 5.08 35.0 29.5 0.0 0.217 47.8
2020-02-27 12:45 61.23 15.69 14.18 61.23 61.23 7.61 10.45 7.31 5.5 350.5 0.0 0.217 47.98
2020-02-27 12:50 60.93 15.49 13.65 60.93 60.93 5.82 9.04 6.62 325.7 353.5 0.0 0.216 48.16
2020-02-27 12:55 61.29 15.83 14.43 61.29 61.29 4.56 9.73 7.05 339.8 344.0 0.0 0.215 48.34
2020-02-27 13:00 61.79 15.8 14.8 61.79 61.79 5.46 10.09 5.53 343.9 10.6 0.0 0.214 48.51
2020-02-27 13:05 61.66 15.32 13.99 61.66 61.66 6.0 9.91 5.66 310.1 334.8 0.0 0.213 48.69
2020-02-27 13:10 62.71 15.01 14.36 62.71 62.71 6.0 8.86 6.24 334.9 8.0 0.0 0.211 48.87
2020-02-27 13:15 62.4 15.32 14.58 62.4 62.4 2.24 8.12 5.06 29.4 14.3 0.0 0.21 49.01
2020-02-27 13:20 62.76 15.56 15.23 62.76 62.76 3.67 7.07 4.47 88.1 5.2 0.0 0.209 49.19
2020-02-27 13:25 62.15 15.46 14.59 62.15 62.15 6.71 9.91 6.11 327.8 6.3 0.0 0.207 49.33
2020-02-27 13:30 62.82 15.25 14.81 62.82 62.82 5.82 7.61 5.19 341.3 11.8 0.0 0.205 49.51
2020-02-27 13:35 63.07 15.05 14.71 63.07 63.07 4.56 7.96 5.32 346.4 5.9 0.0 0.203 49.66
2020-02-27 13:40 63.99 14.54 14.66 63.99 63.99 7.25 10.63 7.61 9.3 10.2 0.0 0.201 49.8
2020-02-27 13:45 63.55 15.01 15.04 63.55 63.55 5.46 11.52 6.85 52.2 359.1 0.0 0.199 49.96
2020-02-27 13:50 63.93 14.98 15.3 63.93 63.93 4.21 10.09 6.42 28.4 4.3 0.0 0.196 50.09
2020-02-27 13:55 63.81 15.05 15.31 63.81 63.81 7.78 9.04 5.97 41.3 31.4 0.0 0.194 50.25
2020-02-27 14:00 64.29 14.77 15.27 64.29 64.29 9.57 12.42 7.52 350.1 15.3 0.0 0.191 50.38
2020-02-27 14:05 64.04 14.74 15.02 64.04 64.04 7.43 10.63 8.7 328.0 340.6 0.0 0.189 50.52
2020-02-27 14:10 63.73 14.71 14.72 63.73 63.73 3.13 10.8 6.2 8.0 6.2 0.0 0.187 50.68
2020-02-27 14:15 64.72 13.99 14.37 64.72 64.72 6.71 12.06 7.16 50.8 10.6 0.0 0.177 50.77
2020-02-27 14:20 65.16 13.72 14.27 65.16 65.16 3.67 10.27 6.71 0.3 353.6 0.0 0.18 50.94
2020-02-27 14:25 65.39 13.45 14.0 65.39 65.39 5.28 6.17 3.49 329.7 23.2 0.0 0.177 51.04
2020-02-27 14:30 65.7 13.48 14.29 65.7 65.7 4.92 9.04 5.01 325.7 0.5 0.0 0.174 51.15
2020-02-27 14:35 65.7 12.63 12.81 65.7 65.7 4.74 8.3 5.41 70.3 17.4 0.0 0.17 51.22
2020-02-27 14:40 65.52 13.55 14.27 65.52 65.52 7.43 7.43 3.33 5.0 27.4 0.0 0.167 51.33
2020-02-27 14:45 65.52 13.41 14.03 65.52 65.52 4.56 9.57 6.93 1.1 351.8 0.0 0.163 51.42
2020-02-27 14:50 66.0 13.96 15.34 66.0 66.0 8.3 8.3 5.21 27.3 10.7 0.0 0.16 51.51
2020-02-27 14:55 65.26 14.26 15.24 65.26 65.26 5.46 10.27 6.85 350.3 353.5 0.0 0.156 51.58
2020-02-27 15:00 64.78 14.23 14.8 64.78 64.78 6.35 10.09 6.11 0.3 339.4 0.0 0.152 51.66
2020-02-27 15:05 65.46 13.92 14.84 65.46 65.46 5.64 8.12 5.17 46.7 15.1 0.0 0.141 51.73
2020-02-27 15:10 65.64 13.65 14.54 65.64 65.64 3.49 7.61 4.45 52.1 29.0 0.0 0.141 51.78
2020-02-27 15:15 65.16 13.65 14.15 65.16 65.16 4.74 6.71 4.12 55.2 58.2 0.0 0.139 51.84
2020-02-27 15:20 65.52 13.75 14.6 65.52 65.52 7.61 8.12 4.7 328.1 10.9 0.0 0.136 51.87
2020-02-27 15:25 65.57 13.82 14.76 65.57 65.57 3.67 7.61 3.94 37.5 29.0 0.0 0.132 51.94
2020-02-27 15:30 66.0 13.58 14.7 66.0 66.0 2.59 4.92 2.55 320.2 27.3 0.0 0.127 51.98
2020-02-27 15:35 65.95 13.41 14.37 65.95 65.95 4.38 8.68 5.3 59.9 37.3 0.0 0.123 52.02
2020-02-27 15:40 65.77 13.65 14.64 65.77 65.77 6.0 8.3 4.43 346.7 34.3 0.0 0.118 52.05
2020-02-27 15:45 65.64 13.14 13.67 65.64 65.64 6.35 8.3 6.33 44.4 0.1 0.0 0.114 52.07
2020-02-27 15:50 66.38 13.38 14.66 66.38 66.38 6.17 7.78 4.3 67.9 34.8 0.0 0.112 52.09
2020-02-27 15:55 66.07 12.94 13.66 66.07 66.07 4.38 8.3 4.12 52.0 19.3 0.0 0.1 52.11
2020-02-27 16:00 65.82 13.38 14.22 65.82 65.82 3.31 9.57 4.9 40.5 25.8 0.0 0.101 52.12
2020-02-27 16:05 66.0 13.17 14.0 66.0 66.0 4.56 7.61 4.81 16.9 38.3 0.0 0.09 52.12
2020-02-27 16:10 65.95 12.83 13.37 65.95 65.95 4.38 6.17 3.62 64.9 29.5 0.0 0.075 52.12
2020-02-27 16:15 65.82 12.9 13.39 65.82 65.82 4.38 6.0 3.69 83.8 26.7 0.0 0.087 52.12
2020-02-27 16:20 65.59 13.11 13.57 65.59 65.59 5.46 9.22 5.17 35.0 63.7 0.0 0.082 52.12
2020-02-27 16:25 65.08 13.0 12.98 65.08 65.08 4.56 8.86 6.2 67.5 68.4 0.0 0.061 52.14
2020-02-27 16:30 64.6 13.17 12.89 64.6 64.6 6.35 7.96 5.21 88.1 90.5 0.0 0.072 52.12
2020-02-27 16:35 64.42 13.11 12.65 64.42 64.42 7.96 8.48 6.29 97.0 91.8 0.0 0.068 52.16
2020-02-27 16:40 64.65 13.55 13.58 64.65 64.65 4.56 9.22 6.2 62.9 87.4 0.0 0.063 52.16
2020-02-27 16:45 64.72 13.17 12.99 64.72 64.72 6.71 6.89 4.5 60.6 68.5 0.0 0.058 52.18
2020-02-27 16:50 64.67 13.48 13.48 64.67 64.67 2.95 6.71 4.07 34.8 64.5 0.0 0.054 52.16
2020-02-27 16:55 64.62 13.28 13.1 64.62 64.62 4.38 7.43 4.05 66.3 69.7 0.0 0.049 52.16
2020-02-27 17:00 64.36 13.21 12.78 64.36 64.36 3.67 5.28 3.91 58.3 68.8 0.0 0.045 52.16
2020-02-27 17:05 64.31 13.35 12.97 64.31 64.31 3.13 5.46 3.27 95.2 86.9 0.0 0.041 52.12
2020-02-27 17:10 63.7 14.3 14.05 63.7 63.7 5.82 7.61 5.66 111.2 87.1 0.0 0.035 52.12
2020-02-27 17:15 62.85 18.11 18.82 62.85 62.85 4.03 6.17 4.99 102.5 91.0 0.0 0.032 52.12
2020-02-27 17:20 61.5 22.41 22.72 61.5 61.5 4.56 5.1 4.61 104.1 99.2 0.0 0.026 52.12
2020-02-27 17:25 60.22 26.12 25.3 60.22 60.22 3.13 4.74 3.87 108.0 103.6 0.0 0.02 52.11
2020-02-27 17:30 59.92 29.39 27.89 59.92 59.92 3.85 3.85 3.36 113.1 102.2 0.0 0.016 52.09
2020-02-27 17:35 57.7 31.43 27.59 57.7 57.7 3.67 4.03 3.62 113.9 112.0 0.0 0.01 52.05
2020-02-27 17:40 56.25 31.26 26.19 56.25 56.25 3.13 4.21 3.8 103.7 112.2 0.0 0.004 52.03
2020-02-27 17:45 55.76 31.06 25.61 55.76 55.76 4.03 4.03 3.65 130.0 119.1 0.0 0.002 52.02
2020-02-27 17:50 55.58 23.81 19.14 55.58 55.58 4.74 4.92 4.09 140.7 133.9 0.0 0.002 52.0
2020-02-27 17:55 55.6 21.63 16.92 55.6 55.6 5.1 5.28 4.81 146.1 145.0 0.0 0.001 51.96
2020-02-27 18:00 55.65 21.15 16.45 55.65 55.65 5.1 5.46 5.06 139.8 143.1 0.0 0.001 51.89
2020-02-27 18:05 55.53 20.13 15.21 55.53 55.53 5.46 5.82 5.41 143.3 142.8 0.0 0.0 51.85
2020-02-27 18:10 54.63 22.11 16.62 54.63 54.63 4.92 5.46 5.06 160.2 156.3 0.0 0.0 51.82
2020-02-27 18:15 53.4 23.95 17.43 53.4 53.4 5.1 5.28 5.06 167.5 164.6 0.0 0.0 51.76
2020-02-27 18:20 53.35 23.38 16.83 53.35 53.35 5.28 5.46 4.94 160.8 164.8 0.0 0.0 51.71
2020-02-27 18:25 53.11 23.48 16.73 53.11 53.11 4.74 5.64 5.15 164.8 164.4 0.0 0.0 51.66
2020-02-27 18:30 52.43 26.34 18.81 52.43 52.43 4.03 5.1 4.61 164.8 169.1 0.0 0.0 51.6
2020-02-27 18:35 51.58 27.09 18.74 51.58 51.58 3.85 4.03 3.51 155.1 165.1 0.0 0.0 51.55
2020-02-27 18:40 51.21 28.05 19.23 51.21 51.21 4.21 4.56 4.05 166.6 164.9 0.0 0.0 51.48
2020-02-27 18:45 50.49 29.0 19.39 50.49 50.49 3.67 4.74 4.27 178.5 175.8 0.0 0.0 51.4
2020-02-27 18:50 50.61 23.41 14.54 50.61 50.61 4.21 4.74 4.21 182.9 181.7 0.0 0.0 51.33
2020-02-27 18:55 51.04 22.94 14.44 51.04 51.04 3.85 4.56 4.14 175.8 180.5 0.0 0.0 51.26
2020-02-27 19:00 50.74 23.69 14.92 50.74 50.74 3.85 3.85 3.65 176.0 178.4 0.0 0.0 51.21
2020-02-27 19:05 50.0 25.05 15.57 50.0 50.0 3.31 4.03 3.56 184.0 175.3 0.0 0.0 51.13
2020-02-27 19:10 49.64 24.44 14.7 49.64 49.64 2.06 3.13 2.44 184.0 180.6 0.0 0.0 51.06
2020-02-27 19:15 49.69 23.93 14.26 49.69 49.69 2.24 2.59 2.3 209.2 198.7 0.0 0.0 50.99
2020-02-27 19:20 49.28 24.48 14.43 48.56 49.28 3.31 4.74 3.65 192.1 198.0 0.0 0.0 50.9
2020-02-27 19:25 49.35 23.86 13.9 47.71 49.35 4.56 4.56 3.87 205.5 204.5 0.0 0.0 50.85
2020-02-27 19:30 49.84 23.52 13.99 48.64 49.84 4.03 4.38 4.18 185.8 198.4 0.0 0.0 50.77
2020-02-27 19:35 50.27 23.49 14.33 50.27 50.27 4.21 4.56 4.21 173.8 185.2 0.0 0.0 50.7
2020-02-27 19:40 49.91 24.24 14.74 48.72 49.91 4.03 5.28 4.36 192.1 182.8 0.0 0.0 50.63
2020-02-27 19:45 49.17 24.75 14.59 48.29 49.17 3.49 4.92 4.0 186.3 191.2 0.0 0.0 50.56
2020-02-27 19:50 49.23 26.42 16.13 48.66 49.23 3.13 3.67 3.27 182.9 169.1 0.0 0.0 50.47
2020-02-27 19:55 48.69 24.75 14.17 47.73 48.69 3.49 4.21 3.67 197.3 190.3 0.0 0.0 50.4
2020-02-27 20:00 48.99 25.26 14.9 47.94 48.99 3.67 4.03 3.67 169.4 181.8 0.0 0.0 50.32
2020-02-27 20:05 48.74 24.82 14.28 48.74 48.74 2.77 3.49 2.86 171.7 163.2 0.0 0.0 50.25
2020-02-27 20:10 48.56 24.55 13.88 48.56 48.56 2.77 3.49 3.04 226.2 208.0 0.0 0.0 50.18
2020-02-27 20:15 48.38 25.27 14.39 47.23 48.38 3.67 4.21 3.0 237.8 225.6 0.0 0.0 50.11
2020-02-27 20:20 45.81 30.55 16.52 44.78 45.81 3.13 6.71 3.98 191.4 254.1 0.0 0.0 50.04
2020-02-27 20:25 46.54 30.08 16.8 46.54 46.54 2.95 6.35 4.54 199.3 209.6 0.0 0.0 49.96
2020-02-27 20:30 46.49 28.85 15.79 46.49 46.49 2.24 4.03 2.93 277.2 243.1 0.0 0.0 49.89
2020-02-27 20:35 45.88 30.9 16.84 44.06 45.88 4.03 4.03 3.4 253.5 269.9 0.0 0.0 49.82
2020-02-27 20:40 45.01 31.61 16.61 43.21 45.01 3.85 3.85 3.69 263.0 262.3 0.0 0.0 49.75
2020-02-27 20:45 43.41 35.02 17.57 41.21 43.41 4.03 4.56 4.09 253.3 261.6 0.0 0.0 49.69
2020-02-27 20:50 42.01 37.44 17.87 39.0 42.01 4.74 5.28 4.07 252.5 257.0 0.0 0.0 49.62
2020-02-27 20:55 41.4 38.09 17.72 38.57 41.4 4.38 4.92 4.23 257.6 262.5 0.0 0.0 49.55
2020-02-27 21:00 41.09 37.75 17.24 37.03 41.09 6.0 6.0 4.97 273.3 270.9 0.0 0.0 49.48
2020-02-27 21:05 41.14 38.6 17.81 37.33 41.14 5.64 6.53 5.93 266.6 269.7 0.0 0.0 49.41
2020-02-27 21:10 40.96 40.21 18.59 36.13 40.96 7.25 7.25 6.13 265.0 265.7 0.0 0.0 49.35
2020-02-27 21:15 39.99 42.67 19.1 35.38 39.99 6.53 6.71 6.13 256.0 259.6 0.0 0.0 49.26
2020-02-27 21:20 39.38 43.45 18.97 35.24 39.38 5.64 6.53 5.97 263.9 257.5 0.0 0.0 49.21
2020-02-27 21:25 39.99 41.81 18.63 35.27 39.99 6.71 7.96 6.98 262.2 249.9 0.0 0.0 49.14
2020-02-27 21:30 40.55 40.62 18.46 35.44 40.55 7.61 8.12 6.78 268.1 261.0 0.0 0.0 49.06
2020-02-27 21:35 40.42 42.36 19.32 35.01 40.42 8.12 8.48 7.49 272.3 270.6 0.0 0.0 48.99
2020-02-27 21:40 39.63 44.89 19.96 34.42 39.63 7.43 7.96 7.2 263.9 265.2 0.0 0.0 48.92
2020-02-27 21:45 39.56 45.09 20.0 35.58 39.56 5.46 8.12 7.02 260.0 264.0 0.0 0.0 48.87
2020-02-27 21:50 39.2 45.81 20.04 34.32 39.2 6.71 7.07 6.29 259.9 266.8 0.0 0.0 48.78
2020-02-27 21:55 38.64 46.59 19.93 33.54 38.64 6.89 7.25 6.64 272.6 270.0 0.0 0.0 48.72
2020-02-27 22:00 38.59 47.41 20.29 34.05 38.59 6.0 6.71 5.93 272.5 267.9 0.0 0.0 48.65
2020-02-27 22:05 38.1 48.58 20.41 33.47 38.1 6.0 6.71 5.97 275.0 270.1 0.0 0.0 48.58
2020-02-27 22:10 38.35 48.2 20.46 33.65 38.35 6.17 7.78 6.64 277.6 269.8 0.0 0.0 48.51
2020-02-27 22:15 37.36 50.9 20.83 32.35 37.36 6.35 7.25 6.29 262.3 265.1 0.0 0.0 48.45
2020-02-27 22:20 37.44 48.61 19.81 32.32 37.44 6.53 7.25 6.55 261.6 263.7 0.0 0.0 48.4
2020-02-27 22:25 37.54 48.99 20.1 32.11 37.54 7.07 7.61 6.73 269.5 270.2 0.0 0.0 48.31
2020-02-27 22:30 37.13 48.88 19.66 31.61 37.13 7.07 7.43 6.35 273.2 276.3 0.0 0.0 48.27
2020-02-27 22:35 38.23 46.63 19.57 33.27 38.23 6.53 7.61 6.8 274.6 273.0 0.0 0.0 48.2
2020-02-27 22:40 38.35 46.36 19.55 32.98 38.35 7.25 7.78 6.55 281.9 270.8 0.0 0.0 48.15
2020-02-27 22:45 37.49 49.74 20.4 32.62 37.49 6.17 6.89 6.15 272.4 266.7 0.0 0.0 48.09
2020-02-27 22:50 37.13 51.07 20.69 31.83 37.13 6.71 7.25 6.42 270.0 262.1 0.0 0.0 48.02
2020-02-27 22:55 37.69 48.31 19.9 32.07 37.69 7.43 8.12 7.07 263.0 263.3 0.0 0.0 47.95
2020-02-27 23:00 38.12 47.32 19.81 32.59 38.12 7.43 8.3 7.25 272.0 263.9 0.0 0.0 47.89
2020-02-27 23:05 37.92 48.48 20.2 33.38 37.92 5.82 7.25 6.38 268.3 265.3 0.0 0.0 47.84
2020-02-27 23:10 37.74 48.27 19.93 32.46 37.74 6.89 7.25 6.38 266.6 266.2 0.0 0.0 47.77
2020-02-27 23:15 37.62 47.22 19.3 33.71 37.62 4.92 7.07 6.24 277.2 274.7 0.0 0.0 47.73
2020-02-27 23:20 37.69 48.51 20.0 34.77 37.69 3.85 5.46 4.65 282.4 285.3 0.0 0.0 47.66
2020-02-27 23:25 37.92 45.72 18.83 35.42 37.92 3.49 4.56 3.65 285.2 285.5 0.0 0.0 47.62
2020-02-27 23:30 38.98 44.42 19.12 38.98 38.98 1.7 5.1 3.27 2.9 299.9 0.0 0.0 47.55
2020-02-27 23:35 39.47 42.54 18.56 39.47 39.47 2.95 3.85 2.26 336.0 357.0 0.0 0.0 47.5
2020-02-27 23:40 39.52 41.93 18.27 39.52 39.52 0.81 5.28 3.02 141.2 321.4 0.0 0.0 47.44
2020-02-27 23:45 39.34 43.98 19.22 39.34 39.34 1.7 3.67 2.26 187.9 193.2 0.0 0.0 47.41
2020-02-27 23:50 38.17 50.46 21.38 38.17 38.17 2.42 2.77 2.35 112.5 121.1 0.0 0.0 47.34
2020-02-27 23:55 38.73 45.99 19.71 38.73 38.73 1.7 2.59 1.88 277.6 301.3 0.0 0.0 47.3
2020-02-28 00:00 38.79 47.9 20.71 38.79 38.79 1.34 1.88 1.05 95.2 276.6 0.0 0.0 47.25
2020-02-28 00:05 37.69 48.28 19.89 37.69 37.69 2.06 2.06 1.48 152.6 119.4 0.0 0.0 47.19
2020-02-28 00:10 37.99 50.56 21.26 37.99 37.99 2.59 3.85 2.73 139.6 151.3 0.0 0.0 47.17
2020-02-28 00:15 36.84 50.43 20.13 36.84 36.84 1.52 3.13 2.21 146.3 143.5 0.0 0.0 47.1
2020-02-28 00:20 36.95 48.52 19.32 36.95 36.95 1.34 2.77 2.1 141.2 135.1 0.0 0.0 47.05
2020-02-28 00:25 36.59 49.58 19.5 36.59 36.59 1.34 2.24 1.77 141.4 132.5 0.0 0.0 47.03
2020-02-28 00:30 35.85 50.26 19.13 35.85 35.85 2.24 3.13 2.39 175.8 149.8 0.0 0.0 46.96
2020-02-28 00:35 35.37 54.12 20.42 35.37 35.37 2.59 2.95 2.68 155.4 163.1 0.0 0.0 46.9
2020-02-28 00:40 34.75 53.37 19.52 32.23 34.75 3.13 3.13 2.53 136.9 147.9 0.0 0.0 46.87
2020-02-28 00:45 35.19 50.84 18.78 35.19 35.19 2.59 2.95 2.57 133.0 133.0 0.0 0.0 46.81
2020-02-28 00:50 36.41 50.37 19.7 36.41 36.41 2.06 2.59 2.21 114.3 119.6 0.0 0.0 46.76
2020-02-28 00:55 37.15 54.46 22.23 37.15 37.15 1.7 2.06 1.77 147.1 133.2 0.0 0.0 46.71
2020-02-28 01:00 36.59 48.87 19.16 36.59 36.59 1.34 2.06 1.57 142.0 148.9 0.0 0.0 46.67
2020-02-28 01:05 36.41 49.68 19.38 36.41 36.41 1.7 2.24 1.43 125.5 135.6 0.0 0.0 46.6
2020-02-28 01:10 35.42 51.46 19.28 35.42 35.42 2.24 3.31 2.48 161.3 142.6 0.0 0.0 46.56
2020-02-28 01:15 35.19 54.33 20.34 35.19 35.19 2.24 2.77 2.44 199.4 189.4 0.0 0.0 46.49
2020-02-28 01:20 34.75 56.82 20.99 34.75 34.75 1.16 2.24 1.97 151.4 167.2 0.0 0.0 46.45
2020-02-28 01:25 34.63 54.19 19.76 34.63 34.63 1.52 2.06 1.41 108.0 120.3 0.0 0.0 46.4
2020-02-28 01:30 35.06 53.64 19.92 35.06 35.06 1.34 2.06 1.63 111.3 105.0 0.0 0.0 46.35
2020-02-28 01:35 35.06 53.47 19.85 35.06 35.06 0.0 1.7 1.14 140.0 132.3 0.0 0.0 46.31
2020-02-28 01:40 35.06 51.94 19.17 35.06 35.06 0.0 0.81 0.02 288.8 283.7 0.0 0.0 46.26
2020-02-28 01:45 35.67 49.85 18.77 35.67 35.67 2.06 2.59 1.88 259.5 279.4 0.0 0.0 46.22
2020-02-28 01:50 34.09 54.6 19.43 30.07 34.09 4.38 4.74 3.78 244.9 244.4 0.0 0.0 46.18
2020-02-28 01:55 33.03 57.19 19.52 29.2 33.03 4.03 4.38 3.8 248.3 241.9 0.0 0.0 46.11
2020-02-28 02:00 34.02 53.4 18.84 29.64 34.02 4.74 4.74 3.65 235.6 244.7 0.0 0.0 46.08
2020-02-28 02:05 34.93 50.88 18.57 30.26 34.93 5.28 6.71 5.82 250.9 240.6 0.0 0.0 46.04
2020-02-28 02:10 35.37 49.69 18.42 30.77 35.37 5.28 5.64 5.23 271.5 260.2 0.0 0.0 46.0
2020-02-28 02:15 35.06 51.19 18.83 29.98 35.06 5.82 6.53 5.48 287.1 282.8 0.0 0.0 45.95
2020-02-28 02:20 35.62 49.28 18.46 31.36 35.62 4.92 6.17 5.37 309.5 295.8 0.0 0.0 45.93
2020-02-28 02:25 36.46 46.03 17.65 32.36 36.46 4.92 6.53 5.48 335.8 313.3 0.0 0.0 45.88
2020-02-28 02:30 36.36 46.55 17.81 31.79 36.36 5.46 6.53 5.88 335.3 333.7 0.0 0.0 45.82
2020-02-28 02:35 36.46 45.73 17.5 31.92 36.46 5.46 6.35 5.86 333.1 336.2 0.0 0.0 45.81
2020-02-28 02:40 36.59 44.91 17.19 33.15 36.59 4.21 6.17 5.5 335.6 336.8 0.0 0.0 45.77
2020-02-28 02:45 36.9 43.24 16.59 34.66 36.9 3.13 4.56 4.03 313.2 324.4 0.0 0.0 45.7
2020-02-28 02:50 37.27 43.17 16.9 34.48 37.27 3.67 3.85 3.65 334.9 322.5 0.0 0.0 45.64
2020-02-28 02:55 37.58 42.28 16.7 35.23 37.58 3.31 4.21 3.36 341.1 330.3 0.0 0.0 45.63
2020-02-28 03:00 37.71 42.96 17.18 33.53 37.71 5.28 5.46 4.21 350.6 351.8 0.0 0.0 45.57
2020-02-28 03:05 36.05 46.17 17.34 33.08 36.05 3.67 6.0 4.32 332.3 337.7 0.0 0.0 45.55
2020-02-28 03:10 35.98 46.48 17.43 32.27 35.98 4.38 5.82 4.63 335.0 342.6 0.0 0.0 45.5
2020-02-28 03:15 34.93 47.74 17.09 34.93 34.93 1.7 5.82 4.34 335.3 342.0 0.0 0.0 45.46
2020-02-28 03:20 36.72 44.6 17.15 36.72 36.72 2.59 5.1 2.91 330.6 359.5 0.0 0.0 45.43
2020-02-28 03:25 36.59 45.28 17.38 36.59 36.59 2.95 5.46 4.21 18.9 345.2 0.0 0.0 45.37
2020-02-28 03:30 35.85 47.4 17.77 32.47 35.85 4.03 5.28 4.25 334.5 341.8 0.0 0.0 45.32
2020-02-28 03:35 35.31 48.52 17.81 31.16 35.31 4.74 5.1 3.76 344.3 341.6 0.0 0.0 45.3
2020-02-28 03:40 34.27 50.84 17.93 31.03 34.27 3.67 4.56 4.14 350.1 342.2 0.0 0.0 45.27
2020-02-28 03:45 34.32 50.33 17.75 30.7 34.32 4.03 4.38 3.06 340.1 345.2 0.0 0.0 45.23
2020-02-28 03:50 33.1 52.96 17.79 28.92 33.1 4.38 4.74 4.3 328.3 334.0 0.0 0.0 45.19
2020-02-28 03:55 32.97 53.71 18.0 29.34 32.97 3.85 4.92 4.3 342.4 339.7 0.0 0.0 45.16
2020-02-28 04:00 33.4 51.94 17.63 29.27 33.4 4.38 5.28 4.41 341.9 344.1 0.0 0.0 45.12
2020-02-28 04:05 33.28 53.47 18.19 28.95 33.28 4.56 5.1 4.36 337.0 339.4 0.0 0.0 45.09
2020-02-28 04:10 33.4 52.55 17.9 30.25 33.4 3.49 5.1 4.12 353.7 342.9 0.0 0.0 45.05
2020-02-28 04:15 33.4 53.17 18.17 33.4 33.4 2.42 5.1 3.91 12.3 345.7 0.0 0.0 45.01
2020-02-28 04:20 33.96 52.21 18.27 33.96 33.96 2.95 3.67 2.48 9.7 0.5 0.0 0.0 44.98
2020-02-28 04:25 34.32 51.25 18.17 34.32 34.32 2.42 4.56 3.78 15.2 5.2 0.0 0.0 44.92
2020-02-28 04:30 34.52 51.33 18.39 30.57 34.52 4.38 4.74 3.76 17.7 2.6 0.0 0.0 44.91
2020-02-28 04:35 33.89 53.13 18.61 29.84 33.89 4.38 4.74 4.05 35.8 14.7 0.0 0.0 44.89
2020-02-28 04:40 33.15 55.28 18.84 29.55 33.15 3.85 5.46 4.05 5.8 4.8 0.0 0.0 44.82
2020-02-28 04:45 32.74 57.67 19.45 29.71 32.74 3.31 5.1 3.78 340.7 1.7 0.0 0.0 44.82
2020-02-28 04:50 32.31 58.73 19.47 28.99 32.31 3.49 4.56 3.22 336.7 1.6 0.0 0.0 44.78
2020-02-28 04:55 32.61 58.97 19.85 28.53 32.61 4.21 5.46 4.18 345.3 0.8 0.0 0.0 44.74
2020-02-28 05:00 32.61 58.97 19.85 27.36 32.61 5.46 6.35 4.52 346.5 348.8 0.0 0.0 44.71
2020-02-28 05:05 32.56 58.87 19.76 26.21 32.56 6.89 7.43 5.61 332.1 344.0 0.0 0.0 44.67
2020-02-28 05:10 32.79 56.96 19.21 26.75 32.79 6.53 7.78 6.6 316.6 330.7 0.0 0.0 44.64
2020-02-28 05:15 32.43 56.83 18.81 28.72 32.43 3.85 6.71 5.3 304.4 320.3 0.0 0.0 44.6
2020-02-28 05:20 32.18 56.66 18.51 28.23 32.18 4.03 4.92 4.07 301.5 306.8 0.0 0.0 44.56
2020-02-28 05:25 31.87 57.41 18.53 28.07 31.87 3.85 4.56 3.74 320.5 321.8 0.0 0.0 44.53
2020-02-28 05:30 31.44 58.26 18.46 26.99 31.44 4.38 5.1 4.54 316.2 318.2 0.0 0.0 44.51
2020-02-28 05:35 30.16 59.66 17.81 25.5 30.16 4.38 5.1 4.52 328.2 324.9 0.0 0.0 44.46
2020-02-28 05:40 30.09 61.5 18.45 25.42 30.09 4.38 4.56 4.07 343.8 336.3 0.0 0.0 44.44
2020-02-28 05:45 30.09 61.02 18.27 26.23 30.09 3.67 5.1 3.94 331.5 338.6 0.0 0.0 44.4
2020-02-28 05:50 29.66 62.32 18.35 26.2 29.66 3.31 4.38 3.78 323.9 335.7 0.0 0.0 44.37
2020-02-28 05:55 28.74 64.64 18.33 25.16 28.74 3.31 3.49 3.24 315.0 320.5 0.0 0.0 44.33
2020-02-28 06:00 28.38 64.92 18.09 28.38 28.38 2.95 3.85 3.22 268.1 288.8 0.0 0.0 44.29
2020-02-28 06:05 27.82 65.6 17.8 23.86 27.82 3.49 3.67 3.2 287.9 268.0 0.0 0.0 44.26
2020-02-28 06:10 27.95 67.28 18.5 22.93 27.95 4.38 4.92 4.05 299.6 296.4 0.0 0.0 44.22
2020-02-28 06:15 28.38 63.93 17.73 23.83 28.38 4.03 5.28 4.18 303.8 305.0 0.0 0.0 44.17
2020-02-28 06:20 28.63 63.8 17.92 24.79 28.63 3.49 6.17 4.83 306.1 302.3 0.0 0.001 44.15
2020-02-28 06:25 28.51 63.42 17.66 23.98 28.51 4.03 4.92 3.91 313.1 314.4 0.0 0.001 44.11
2020-02-28 06:30 28.33 63.29 17.44 22.81 28.33 4.92 5.1 4.23 293.9 305.8 0.0 0.002 44.08
2020-02-28 06:35 28.51 62.81 17.44 23.58 28.51 4.38 5.82 4.76 273.1 280.2 0.0 0.003 44.04
2020-02-28 06:40 28.58 62.95 17.56 23.66 28.58 4.38 5.28 4.81 288.4 278.7 0.0 0.005 44.01
2020-02-28 06:45 28.94 61.9 17.51 24.28 28.94 4.21 5.1 4.65 319.8 301.7 0.0 0.008 43.97
2020-02-28 06:50 30.06 59.23 17.54 23.89 30.06 6.0 6.17 4.81 311.0 308.8 0.0 0.011 43.93
2020-02-28 06:55 30.79 57.49 17.54 24.91 30.79 5.82 5.82 5.01 309.1 317.7 0.0 0.016 43.9
2020-02-28 07:00 31.28 56.5 17.6 25.95 31.28 5.28 5.28 4.56 327.3 325.4 0.0 0.022 43.84
2020-02-28 07:05 31.64 57.25 18.24 26.53 31.64 5.1 6.35 5.48 315.4 328.6 0.0 0.031 43.79
2020-02-28 07:10 32.58 54.93 18.16 27.96 32.58 4.74 5.82 4.63 301.5 313.4 0.0 0.039 43.77
2020-02-28 07:15 34.47 51.34 18.34 30.87 34.47 4.03 5.64 4.68 319.8 318.0 0.0 0.045 43.74
2020-02-28 07:20 36.07 48.16 18.34 32.21 36.07 4.56 5.64 4.65 305.4 313.4 0.0 0.044 43.7
2020-02-28 07:25 37.47 45.33 18.21 32.98 37.47 5.64 7.61 5.5 292.4 304.9 0.0 0.033 43.68
2020-02-28 07:30 37.6 45.36 18.35 34.15 37.6 4.38 5.64 4.92 292.8 295.3 0.0 0.024 43.65
2020-02-28 07:35 37.78 44.5 18.06 34.7 37.78 4.03 5.64 4.5 297.2 298.5 0.0 0.024 43.63
2020-02-28 07:40 38.14 43.34 17.78 34.18 38.14 5.1 6.71 5.3 314.3 310.6 0.0 0.033 43.61
2020-02-28 07:45 38.5 42.18 17.48 33.26 38.5 7.07 8.12 6.53 324.0 321.7 0.0 0.047 43.56
2020-02-28 07:50 38.68 41.46 17.24 32.79 38.68 8.3 9.04 7.25 334.2 328.4 0.0 0.057 43.54
2020-02-28 07:55 39.36 40.27 17.18 34.09 39.36 7.43 9.04 7.38 329.9 327.2 0.0 0.055 43.52
2020-02-28 08:00 40.15 38.93 17.11 34.5 40.15 8.48 9.04 7.65 320.5 324.0 0.0 0.07 43.5
2020-02-28 08:05 41.0 36.65 16.48 35.36 41.0 8.86 9.73 7.94 323.6 321.5 0.0 0.08 43.5
2020-02-28 08:10 41.49 37.26 17.29 37.07 41.49 6.71 9.91 7.96 310.4 318.2 0.0 0.079 43.48
2020-02-28 08:15 42.15 37.05 17.76 37.57 42.15 7.25 9.73 8.01 335.6 329.6 0.0 0.094 43.48
2020-02-28 08:20 42.53 35.55 17.13 37.41 42.53 8.48 10.63 8.08 325.3 331.5 0.0 0.098 43.47
2020-02-28 08:25 42.89 34.32 16.64 37.45 42.89 9.4 9.57 7.96 331.2 337.9 0.0 0.096 43.47
2020-02-28 08:30 43.56 34.59 17.41 40.19 43.56 5.64 9.4 6.78 342.3 339.4 0.0 0.101 43.45
2020-02-28 08:35 43.61 33.08 16.43 39.06 43.61 7.78 9.4 7.14 325.2 334.0 0.0 0.111 43.45
2020-02-28 08:40 43.84 32.3 16.08 40.0 43.84 6.53 8.48 6.76 350.4 339.5 0.0 0.116 43.45
2020-02-28 08:45 44.15 33.18 16.97 41.51 44.15 4.74 6.71 5.41 311.4 334.8 0.0 0.12 43.47
2020-02-28 08:50 45.19 31.48 16.68 41.82 45.19 6.17 6.71 5.66 318.3 332.6 0.0 0.125 43.48
2020-02-28 08:55 45.68 31.95 17.45 42.82 45.68 5.46 8.68 6.15 324.6 334.0 0.0 0.129 43.48
2020-02-28 09:00 46.17 31.06 17.22 42.51 46.17 7.07 8.3 5.61 334.3 341.9 0.0 0.133 43.5
2020-02-28 09:05 45.81 31.4 17.15 44.13 45.81 3.85 10.45 7.45 338.5 343.8 0.0 0.138 43.54
2020-02-28 09:10 46.9 31.37 18.09 43.96 46.9 6.0 9.22 6.69 326.8 342.3 0.0 0.142 43.57
2020-02-28 09:15 47.01 30.14 17.26 43.12 47.01 7.96 10.98 7.54 21.7 345.0 0.0 0.146 43.61
2020-02-28 09:20 47.57 30.1 17.72 44.47 47.57 6.53 9.57 5.93 21.6 8.1 0.0 0.15 43.65
2020-02-28 09:25 47.8 30.85 18.49 44.08 47.8 7.96 9.57 6.26 14.0 0.1 0.0 0.154 43.66
2020-02-28 09:30 47.5 29.96 17.54 43.79 47.5 7.78 8.3 5.82 353.5 347.0 0.0 0.159 43.74
2020-02-28 09:35 48.09 29.62 17.8 44.92 48.09 6.89 8.48 6.51 344.9 348.6 0.0 0.158 43.81
2020-02-28 09:40 48.4 29.21 17.74 44.88 48.4 7.78 9.91 6.69 332.0 338.6 0.0 0.155 43.88
2020-02-28 09:45 49.26 28.39 17.83 47.49 49.26 4.74 7.25 5.39 321.6 358.2 0.0 0.16 43.95
2020-02-28 09:50 49.26 28.36 17.8 46.77 49.26 6.0 8.12 5.88 342.5 356.4 0.0 0.155 44.02
2020-02-28 09:55 49.69 28.05 17.92 47.28 49.69 6.0 9.22 6.51 326.0 347.9 0.0 0.153 44.11
2020-02-28 10:00 49.75 28.22 18.11 47.63 49.75 5.46 9.4 6.26 316.4 317.7 0.0 0.164 44.19
2020-02-28 10:05 50.23 26.65 17.2 50.23 50.23 6.35 9.91 6.35 327.2 322.0 0.0 0.179 44.29
2020-02-28 10:10 50.41 26.58 17.29 50.41 50.41 8.48 9.22 7.07 350.5 337.5 0.0 0.184 44.38
2020-02-28 10:15 51.4 25.9 17.54 51.4 51.4 8.12 11.16 7.34 353.2 338.7 0.0 0.187 44.51
2020-02-28 10:20 52.25 25.32 17.74 52.25 52.25 7.61 8.12 6.02 326.3 335.2 0.0 0.188 44.64
2020-02-28 10:25 52.68 25.18 17.98 52.68 52.68 4.21 7.96 6.38 329.9 341.3 0.0 0.189 44.74
2020-02-28 10:30 52.99 24.71 17.8 52.99 52.99 6.35 6.35 4.81 343.6 348.0 0.0 0.193 44.87
2020-02-28 10:35 53.78 24.94 18.7 53.78 53.78 4.03 9.4 6.13 339.8 325.0 0.0 0.194 45.0
2020-02-28 10:40 53.35 24.94 18.33 53.35 53.35 10.09 10.8 7.7 341.3 339.0 0.0 0.199 45.12
2020-02-28 10:45 54.14 23.78 17.89 54.14 54.14 7.07 9.73 7.61 29.8 336.8 0.0 0.202 45.27
2020-02-28 10:50 54.01 22.62 16.63 54.01 54.01 4.38 10.63 6.87 19.5 357.8 0.0 0.201 45.41
2020-02-28 10:55 55.17 23.13 18.12 55.17 55.17 4.74 7.78 5.15 330.3 352.0 0.0 0.199 45.54
2020-02-28 11:00 56.16 21.36 17.1 56.16 56.16 6.0 7.07 5.39 2.6 354.4 0.0 0.206 45.7
2020-02-28 11:05 56.39 22.21 18.2 56.39 56.39 5.82 7.96 5.66 8.5 19.8 0.0 0.203 45.86
2020-02-28 11:10 56.82 21.46 17.77 56.82 56.82 8.12 9.4 6.64 8.1 343.9 0.0 0.209 46.04
2020-02-28 11:15 57.49 19.69 16.33 57.49 57.49 4.74 9.04 6.76 342.0 348.7 0.0 0.209 46.18
2020-02-28 11:20 56.64 21.6 17.77 56.64 56.64 7.07 9.73 6.8 330.8 331.9 0.0 0.205 46.35
2020-02-28 11:25 57.36 22.45 19.27 57.36 57.36 2.42 7.25 4.68 58.4 26.2 0.0 0.208 46.53
2020-02-28 11:30 57.31 21.7 18.43 57.31 57.31 4.74 6.89 4.3 308.1 353.2 0.0 0.206 46.69
2020-02-28 11:35 58.59 21.19 18.95 58.59 58.59 4.74 6.53 4.43 21.8 344.3 0.0 0.214 46.87
2020-02-28 11:40 59.5 20.1 18.48 59.5 59.5 2.59 9.04 4.32 35.2 4.7 0.0 0.219 47.01
2020-02-28 11:45 59.56 19.69 18.05 59.56 59.56 3.49 7.61 4.9 23.7 357.5 0.0 0.225 47.19
2020-02-28 11:50 59.86 19.48 18.05 59.86 59.86 4.92 7.43 4.99 322.0 358.8 0.0 0.224 47.37
2020-02-28 11:55 59.31 19.24 17.3 59.31 59.31 4.74 7.61 3.8 0.3 28.6 0.0 0.223 47.55
2020-02-28 12:00 61.32 19.27 19.01 61.32 61.32 0.98 5.28 2.68 125.0 70.0 0.0 0.222 47.71

Data is courtesy of the NM Climate Center. DO NOT USE IN LEGAL PROCEEDINGS.